createdAt,value
2023-05-10T00:02:38.308Z,100465.62
2023-05-10T00:05:52.310Z,100467.31
2023-05-10T00:08:58.544Z,100461.03
2023-05-10T00:12:05.856Z,100462.22
2023-05-10T00:15:18.595Z,100456.75
2023-05-10T00:18:27.573Z,100459.59
2023-05-10T00:21:33.678Z,100453.41
2023-05-10T00:24:51.679Z,100457.69
2023-05-10T00:28:02.629Z,100448.69
2023-05-10T00:31:10.127Z,100451.31
2023-05-10T00:34:15.571Z,100442.50
2023-05-10T00:37:28.387Z,100444.66
2023-05-10T00:40:38.979Z,100436.28
2023-05-10T00:43:56.992Z,100448.66
2023-05-10T00:47:02.652Z,100439.84
2023-05-10T00:50:07.697Z,100444.72
2023-05-10T00:53:20.960Z,100439.12
2023-05-10T00:56:26.161Z,100448.06
2023-05-10T00:59:29.082Z,100443.53
2023-05-10T01:02:31.291Z,100436.87
2023-05-10T01:05:34.183Z,100432.09
2023-05-10T01:08:47.449Z,100440.06
2023-05-10T01:11:53.626Z,100437.78
2023-05-10T01:15:15.803Z,100443.25
2023-05-10T01:18:20.997Z,100435.34
2023-05-10T01:22:00.513Z,100426.31
2023-05-10T01:25:21.678Z,100429.78
2023-05-10T01:28:53.960Z,100431.16
2023-05-10T01:32:07.470Z,100430.00
2023-05-10T01:35:16.032Z,100425.38
2023-05-10T01:38:45.560Z,100429.53
2023-05-10T01:42:16.170Z,100426.59
2023-05-10T01:45:39.305Z,100428.88
2023-05-10T01:48:53.796Z,100429.47
2023-05-10T01:52:14.289Z,100420.66
2023-05-10T01:55:22.102Z,100426.50
2023-05-10T01:58:34.056Z,100421.50
2023-05-10T02:01:42.011Z,100418.16
2023-05-10T02:04:45.864Z,100412.94
2023-05-10T02:07:57.935Z,100414.34
2023-05-10T02:11:02.456Z,100412.69
2023-05-10T02:14:17.398Z,100406.53
2023-05-10T02:17:24.153Z,100403.91
2023-05-10T02:20:31.286Z,100409.97
2023-05-10T02:23:35.223Z,100407.59
2023-05-10T02:26:43.848Z,100406.87
2023-05-10T02:29:47.745Z,100406.19
2023-05-10T02:32:51.181Z,100406.28
2023-05-10T02:36:04.345Z,100405.63
2023-05-10T02:39:11.288Z,100397.25
2023-05-10T02:42:20.808Z,100397.50
2023-05-10T02:45:31.440Z,100404.50
2023-05-10T02:48:38.020Z,100406.44
2023-05-10T02:51:46.567Z,100408.56
2023-05-10T02:54:55.198Z,100408.91
2023-05-10T02:58:09.595Z,100404.97
2023-05-10T03:01:12.633Z,100406.28
2023-05-10T03:04:17.449Z,100403.44
2023-05-10T03:07:41.148Z,100409.03
2023-05-10T03:11:04.847Z,100404.16
2023-05-10T03:14:21.834Z,100410.22
2023-05-10T03:17:51.684Z,100406.66
2023-05-10T03:21:26.172Z,100405.72
2023-05-10T03:24:31.348Z,100406.87
2023-05-10T03:27:41.247Z,100406.41
2023-05-10T03:30:48.588Z,100408.44
2023-05-10T03:33:57.404Z,100405.91
2023-05-10T03:37:02.944Z,100396.84
2023-05-10T03:40:17.086Z,100403.88
2023-05-10T03:43:24.000Z,100409.75
2023-05-10T03:46:36.367Z,100402.47
2023-05-10T03:49:47.846Z,100405.34
2023-05-10T03:52:57.327Z,100399.84
2023-05-10T03:55:59.738Z,100406.16
2023-05-10T03:59:13.171Z,100404.75
2023-05-10T04:02:22.469Z,100407.13
2023-05-10T04:05:40.451Z,100409.50
2023-05-10T04:08:55.810Z,100402.72
2023-05-10T04:12:14.726Z,100404.25
2023-05-10T04:15:27.962Z,100411.38
2023-05-10T04:18:35.019Z,100399.37
2023-05-10T04:21:46.187Z,100400.34
2023-05-10T04:24:52.686Z,100409.13
2023-05-10T04:27:58.816Z,100403.78
2023-05-10T04:31:03.835Z,100408.53
2023-05-10T04:34:15.033Z,100409.84
2023-05-10T04:37:20.583Z,100402.84
2023-05-10T04:40:29.259Z,100407.81
2023-05-10T04:43:34.581Z,100415.44
2023-05-10T04:47:02.198Z,100426.19
2023-05-10T04:50:08.490Z,100421.03
2023-05-10T04:53:13.134Z,100413.28
2023-05-10T04:56:23.434Z,100410.25
2023-05-10T04:59:28.747Z,100411.78
2023-05-10T05:02:35.402Z,100417.84
2023-05-10T05:05:47.168Z,100421.50
2023-05-10T05:08:56.886Z,100417.88
2023-05-10T05:12:00.250Z,100416.78
2023-05-10T05:15:13.383Z,100423.56
2023-05-10T05:18:20.616Z,100419.31
2023-05-10T05:21:24.104Z,100425.94
2023-05-10T05:24:26.598Z,100423.22
2023-05-10T05:27:31.502Z,100432.72
2023-05-10T05:30:33.940Z,100425.88
2023-05-10T05:33:38.260Z,100432.53
2023-05-10T05:36:45.317Z,100437.59
2023-05-10T05:39:57.516Z,100439.56
2023-05-10T05:43:04.122Z,100437.75
2023-05-10T05:46:10.096Z,100438.91
2023-05-10T05:49:13.570Z,100443.63
2023-05-10T05:52:31.501Z,100439.66
2023-05-10T05:55:40.534Z,100443.63
2023-05-10T05:58:43.220Z,100449.03
2023-05-10T06:01:47.034Z,100453.56
2023-05-10T06:04:54.986Z,100455.00
2023-05-10T06:07:58.777Z,100460.81
2023-05-10T06:11:09.678Z,100458.88
2023-05-10T06:14:14.830Z,100454.00
2023-05-10T06:17:19.189Z,100461.34
2023-05-10T06:20:23.228Z,100459.00
2023-05-10T06:23:26.914Z,100464.69
2023-05-10T06:26:29.979Z,100468.69
2023-05-10T06:29:32.644Z,100460.53
2023-05-10T06:32:36.928Z,100460.66
2023-05-10T06:35:42.740Z,100464.41
2023-05-10T06:38:49.050Z,100469.12
2023-05-10T06:41:53.480Z,100473.69
2023-05-10T06:44:56.419Z,100469.97
2023-05-10T06:47:59.553Z,100468.00
2023-05-10T06:51:02.646Z,100461.91
2023-05-10T06:54:07.899Z,100459.69
2023-05-10T06:57:23.384Z,100459.97
2023-05-10T07:00:35.742Z,100463.63
2023-05-10T07:03:38.788Z,100457.25
2023-05-10T07:06:42.315Z,100458.78
2023-05-10T07:09:46.866Z,100460.25
2023-05-10T07:12:50.921Z,100453.72
2023-05-10T07:15:53.649Z,100460.56
2023-05-10T07:18:56.617Z,100460.06
2023-05-10T07:21:59.225Z,100463.09
2023-05-10T07:25:03.844Z,100459.28
2023-05-10T07:28:06.906Z,100458.53
2023-05-10T07:31:09.860Z,100465.13
2023-05-10T07:34:12.668Z,100459.25
2023-05-10T07:37:15.202Z,100463.13
2023-05-10T07:40:17.859Z,100469.62
2023-05-10T07:43:20.196Z,100458.53
2023-05-10T07:46:22.748Z,100462.66
2023-05-10T07:49:28.303Z,100465.88
2023-05-10T07:52:30.951Z,100464.91
2023-05-10T07:55:33.833Z,100455.72
2023-05-10T07:58:37.067Z,100457.84
2023-05-10T08:01:39.710Z,100448.69
2023-05-10T08:04:46.479Z,100459.31
2023-05-10T08:07:49.607Z,100457.56
2023-05-10T08:10:53.718Z,100463.41
2023-05-10T08:13:57.956Z,100452.56
2023-05-10T08:17:02.499Z,100448.75
2023-05-10T08:20:06.297Z,100445.25
2023-05-10T08:23:09.774Z,100451.53
2023-05-10T08:26:13.275Z,100458.50
2023-05-10T08:29:16.578Z,100452.03
2023-05-10T08:32:19.764Z,100450.81
2023-05-10T08:35:23.567Z,100441.94
2023-05-10T08:38:27.502Z,100447.69
2023-05-10T08:41:31.914Z,100445.03
2023-05-10T08:44:36.462Z,100445.75
2023-05-10T08:47:39.867Z,100451.19
2023-05-10T08:50:45.390Z,100442.94
2023-05-10T08:53:49.084Z,100444.03
2023-05-10T08:56:52.087Z,100455.13
2023-05-10T08:59:55.494Z,100446.81
2023-05-10T09:03:00.248Z,100445.78
2023-05-10T09:06:03.405Z,100445.66
2023-05-10T09:09:05.914Z,100446.53
2023-05-10T09:12:12.380Z,100444.84
2023-05-10T09:15:17.784Z,100445.66
2023-05-10T09:18:21.376Z,100450.16
2023-05-10T09:21:25.457Z,100443.69
2023-05-10T09:24:28.797Z,100439.91
2023-05-10T09:27:32.444Z,100440.34
2023-05-10T09:30:36.325Z,100442.38
2023-05-10T09:33:46.471Z,100441.50
2023-05-10T09:36:53.354Z,100421.81
2023-05-10T09:39:58.027Z,100436.44
2023-05-10T09:43:03.473Z,100434.88
2023-05-10T09:46:11.807Z,100436.06
2023-05-10T09:49:16.347Z,100421.53
2023-05-10T09:52:18.850Z,100423.34
2023-05-10T09:55:23.458Z,100425.34
2023-05-10T09:58:26.954Z,100430.63
2023-05-10T10:01:29.535Z,100431.78
2023-05-10T10:04:31.878Z,100429.06
2023-05-10T10:07:34.797Z,100409.44
2023-05-10T10:10:38.913Z,100410.72
2023-05-10T10:13:42.462Z,100414.75
2023-05-10T10:16:55.665Z,100406.56
2023-05-10T10:20:11.750Z,100411.84
2023-05-10T10:23:17.926Z,100409.22
2023-05-10T10:26:24.305Z,100406.13
2023-05-10T10:29:36.609Z,100395.25
2023-05-10T10:32:58.595Z,100394.91
2023-05-10T10:36:06.076Z,100392.75
2023-05-10T10:39:14.385Z,100393.88
2023-05-10T10:42:39.244Z,100395.84
2023-05-10T10:45:42.848Z,100389.72
2023-05-10T10:48:54.958Z,100386.28
2023-05-10T10:52:17.833Z,100379.03
2023-05-10T10:55:24.601Z,100382.50
2023-05-10T10:58:33.751Z,100373.63
2023-05-10T11:01:37.048Z,100376.84
2023-05-10T11:04:48.885Z,100377.09
2023-05-10T11:08:00.619Z,100373.56
2023-05-10T11:11:10.586Z,100356.50
2023-05-10T11:14:18.287Z,100361.78
2023-05-10T11:17:28.139Z,100361.56
2023-05-10T11:20:40.572Z,100351.66
2023-05-10T11:23:50.925Z,100350.97
2023-05-10T11:26:55.183Z,100343.91
2023-05-10T11:29:57.807Z,100346.16
2023-05-10T11:33:02.688Z,100349.50
2023-05-10T11:36:05.703Z,100343.09
2023-05-10T11:39:10.432Z,100345.34
2023-05-10T11:42:17.963Z,100331.28
2023-05-10T11:45:21.944Z,100332.53
2023-05-10T11:48:26.772Z,100338.75
2023-05-10T11:51:31.075Z,100335.75
2023-05-10T11:54:34.885Z,100325.94
2023-05-10T11:57:40.853Z,100323.53
2023-05-10T12:00:44.117Z,100327.22
2023-05-10T12:03:46.897Z,100333.13
2023-05-10T12:06:50.330Z,100333.06
2023-05-10T12:10:16.693Z,100339.78
2023-05-10T12:13:25.572Z,100327.00
2023-05-10T12:16:34.698Z,100342.09
2023-05-10T12:19:39.523Z,100335.00
2023-05-10T12:22:42.838Z,100341.41
2023-05-10T12:25:46.667Z,100333.00
2023-05-10T12:28:49.776Z,100323.22
2023-05-10T12:31:57.124Z,100329.56
2023-05-10T12:35:02.000Z,100322.72
2023-05-10T12:38:24.763Z,100312.47
2023-05-10T12:41:30.546Z,100306.09
2023-05-10T12:44:33.301Z,100309.53
2023-05-10T12:47:36.028Z,100304.09
2023-05-10T12:50:38.850Z,100297.47
2023-05-10T12:53:44.701Z,100300.28
2023-05-10T12:56:48.512Z,100300.19
2023-05-10T12:59:51.038Z,100296.66
2023-05-10T13:02:56.086Z,100293.25
2023-05-10T13:05:58.794Z,100295.00
2023-05-10T13:09:01.250Z,100288.66
2023-05-10T13:12:03.750Z,100292.66
2023-05-10T13:15:07.051Z,100284.22
2023-05-10T13:18:10.036Z,100279.62
2023-05-10T13:21:14.501Z,100266.88
2023-05-10T13:24:18.753Z,100264.37
2023-05-10T13:27:22.703Z,100265.34
2023-05-10T13:30:28.511Z,100260.19
2023-05-10T13:33:32.034Z,100260.41
2023-05-10T13:36:35.669Z,100246.56
2023-05-10T13:39:39.618Z,100241.81
2023-05-10T13:42:43.039Z,100243.47
2023-05-10T13:45:45.457Z,100261.22
2023-05-10T13:48:48.031Z,100252.47
2023-05-10T13:51:50.843Z,100243.25
2023-05-10T13:54:56.737Z,100242.59
2023-05-10T13:57:59.275Z,100240.75
2023-05-10T14:01:02.974Z,100236.09
2023-05-10T14:04:06.335Z,100221.72
2023-05-10T14:07:10.440Z,100223.81
2023-05-10T14:10:14.765Z,100225.47
2023-05-10T14:13:16.980Z,100221.22
2023-05-10T14:16:21.433Z,100216.56
2023-05-10T14:19:26.321Z,100215.47
2023-05-10T14:22:31.478Z,100216.09
2023-05-10T14:25:34.479Z,100210.53
2023-05-10T14:28:38.249Z,100210.34
2023-05-10T14:31:41.966Z,100210.16
2023-05-10T14:34:44.469Z,100207.06
2023-05-10T14:37:48.093Z,100204.94
2023-05-10T14:40:51.739Z,100209.50
2023-05-10T14:43:54.936Z,100204.59
2023-05-10T14:47:00.901Z,100198.62
2023-05-10T14:50:03.617Z,100207.78
2023-05-10T14:53:06.714Z,100203.97
2023-05-10T14:56:11.916Z,100205.81
2023-05-10T14:59:14.100Z,100205.81
2023-05-10T15:02:18.454Z,100204.19
2023-05-10T15:05:22.935Z,100199.97
2023-05-10T15:08:28.253Z,100203.44
2023-05-10T15:11:30.429Z,100206.13
2023-05-10T15:14:34.701Z,100209.06
2023-05-10T15:17:55.298Z,100205.28
2023-05-10T15:20:59.074Z,100210.09
2023-05-10T15:24:02.185Z,100200.19
2023-05-10T15:27:07.101Z,100206.66
2023-05-10T15:30:09.896Z,100202.84
2023-05-10T15:33:15.974Z,100205.50
2023-05-10T15:36:19.252Z,100203.19
2023-05-10T15:39:27.349Z,100203.47
2023-05-10T15:42:31.269Z,100199.69
2023-05-10T15:45:37.746Z,100201.34
2023-05-10T15:48:41.243Z,100195.00
2023-05-10T15:51:44.078Z,100197.97
2023-05-10T15:54:47.203Z,100183.44
2023-05-10T15:57:53.024Z,100186.75
2023-05-10T16:00:55.318Z,100188.28
2023-05-10T16:03:58.822Z,100195.56
2023-05-10T16:07:01.172Z,100191.53
2023-05-10T16:10:06.613Z,100193.72
2023-05-10T16:13:09.922Z,100199.87
2023-05-10T16:16:13.008Z,100199.56
2023-05-10T16:19:18.016Z,100192.97
2023-05-10T16:22:23.603Z,100191.97
2023-05-10T16:25:27.049Z,100191.81
2023-05-10T16:28:29.844Z,100189.97
2023-05-10T16:31:34.056Z,100186.00
2023-05-10T16:34:37.219Z,100195.53
2023-05-10T16:37:40.213Z,100195.06
2023-05-10T16:40:43.074Z,100194.06
2023-05-10T16:43:46.595Z,100192.91
2023-05-10T16:46:51.698Z,100198.22
2023-05-10T16:49:53.922Z,100193.44
2023-05-10T16:52:57.002Z,100205.19
2023-05-10T16:56:06.114Z,100208.84
2023-05-10T16:59:09.635Z,100201.56
2023-05-10T17:02:20.645Z,100212.31
2023-05-10T17:05:26.171Z,100214.28
2023-05-10T17:08:28.449Z,100208.62
2023-05-10T17:11:31.024Z,100213.41
2023-05-10T17:14:35.881Z,100223.44
2023-05-10T17:17:38.491Z,100222.28
2023-05-10T17:20:43.831Z,100226.06
2023-05-10T17:23:46.569Z,100229.84
2023-05-10T17:26:50.822Z,100233.09
2023-05-10T17:29:58.195Z,100231.94
2023-05-10T17:33:02.678Z,100231.53
2023-05-10T17:36:08.004Z,100232.00
2023-05-10T17:39:12.545Z,100227.50
2023-05-10T17:42:17.900Z,100230.94
2023-05-10T17:45:22.018Z,100232.84
2023-05-10T17:48:24.863Z,100239.72
2023-05-10T17:51:27.006Z,100232.09
2023-05-10T17:54:30.154Z,100236.66
2023-05-10T17:57:32.852Z,100239.38
2023-05-10T18:00:36.349Z,100243.97
2023-05-10T18:03:41.033Z,100237.06
2023-05-10T18:06:43.764Z,100240.59
2023-05-10T18:09:47.629Z,100238.59
2023-05-10T18:12:55.644Z,100244.47
2023-05-10T18:16:01.620Z,100249.12
2023-05-10T18:19:10.985Z,100251.13
2023-05-10T18:22:16.182Z,100252.53
2023-05-10T18:25:21.151Z,100259.59
2023-05-10T18:28:28.987Z,100254.13
2023-05-10T18:31:31.385Z,100261.34
2023-05-10T18:34:33.718Z,100266.22
2023-05-10T18:37:36.907Z,100266.16
2023-05-10T18:40:45.123Z,100269.53
2023-05-10T18:43:48.638Z,100268.19
2023-05-10T18:46:55.687Z,100278.56
2023-05-10T18:49:58.200Z,100276.78
2023-05-10T18:53:03.103Z,100282.06
2023-05-10T18:56:05.327Z,100286.03
2023-05-10T18:59:09.618Z,100285.81
2023-05-10T19:02:18.929Z,100289.69
2023-05-10T19:05:23.461Z,100286.53
2023-05-10T19:08:36.124Z,100291.50
2023-05-10T19:11:38.402Z,100296.91
2023-05-10T19:14:42.314Z,100291.50
2023-05-10T19:17:52.472Z,100300.66
2023-05-10T19:21:05.158Z,100297.38
2023-05-10T19:24:15.524Z,100301.13
2023-05-10T19:27:18.201Z,100287.31
2023-05-10T19:30:21.998Z,100290.09
2023-05-10T19:33:25.634Z,100293.03
2023-05-10T19:36:28.097Z,100298.56
2023-05-10T19:39:34.554Z,100297.59
2023-05-10T19:42:42.603Z,100299.81
2023-05-10T19:45:44.850Z,100296.59
2023-05-10T19:48:48.862Z,100295.81
2023-05-10T19:51:52.076Z,100293.63
2023-05-10T19:54:54.896Z,100289.50
2023-05-10T19:57:58.975Z,100292.13
2023-05-10T20:01:03.769Z,100290.19
2023-05-10T20:04:06.539Z,100289.22
2023-05-10T20:07:09.505Z,100294.47
2023-05-10T20:10:13.806Z,100294.78
2023-05-10T20:13:17.502Z,100284.66
2023-05-10T20:16:19.913Z,100290.50
2023-05-10T20:19:22.968Z,100289.00
2023-05-10T20:22:26.362Z,100291.63
2023-05-10T20:25:30.510Z,100294.53
2023-05-10T20:28:34.991Z,100294.53
2023-05-10T20:31:38.744Z,100289.00
2023-05-10T20:34:42.014Z,100298.84
2023-05-10T20:37:45.232Z,100300.22
2023-05-10T20:40:49.528Z,100301.78
2023-05-10T20:43:52.509Z,100299.28
2023-05-10T20:46:55.431Z,100296.94
2023-05-10T20:49:58.936Z,100291.53
2023-05-10T20:53:02.511Z,100302.75
2023-05-10T20:56:05.185Z,100296.62
2023-05-10T20:59:08.377Z,100298.56
2023-05-10T21:02:12.246Z,100293.44
2023-05-10T21:05:14.761Z,100295.13
2023-05-10T21:08:17.678Z,100283.91
2023-05-10T21:11:20.275Z,100285.97
2023-05-10T21:14:24.307Z,100292.50
2023-05-10T21:17:29.411Z,100287.38
2023-05-10T21:20:32.221Z,100290.69
2023-05-10T21:23:35.364Z,100290.97
2023-05-10T21:26:38.353Z,100290.84
2023-05-10T21:29:43.362Z,100289.75
2023-05-10T21:32:46.747Z,100291.53
2023-05-10T21:35:49.610Z,100295.28
2023-05-10T21:38:52.969Z,100286.41
2023-05-10T21:41:57.176Z,100294.31
2023-05-10T21:45:01.081Z,100293.31
2023-05-10T21:48:04.974Z,100296.81
2023-05-10T21:51:07.840Z,100290.03
2023-05-10T21:54:11.920Z,100292.66
2023-05-10T21:57:14.879Z,100291.53
2023-05-10T22:00:19.963Z,100292.50
2023-05-10T22:03:23.367Z,100293.97
2023-05-10T22:06:26.319Z,100286.09
2023-05-10T22:09:29.003Z,100291.50
2023-05-10T22:12:31.881Z,100296.78
2023-05-10T22:15:36.390Z,100300.22
2023-05-10T22:18:40.075Z,100302.59
2023-05-10T22:21:43.519Z,100299.25
2023-05-10T22:24:46.504Z,100308.03
2023-05-10T22:27:49.732Z,100308.28
2023-05-10T22:30:52.864Z,100302.16
2023-05-10T22:33:56.620Z,100306.03
2023-05-10T22:37:00.638Z,100305.91
2023-05-10T22:40:04.583Z,100308.13
2023-05-10T22:43:08.431Z,100311.03
2023-05-10T22:46:12.296Z,100318.22
2023-05-10T22:49:16.150Z,100315.28
2023-05-10T22:52:18.545Z,100312.09
2023-05-10T22:55:21.616Z,100317.88
2023-05-10T22:58:24.314Z,100312.63
2023-05-10T23:01:27.115Z,100327.53
2023-05-10T23:04:31.345Z,100319.75
2023-05-10T23:07:34.658Z,100330.59
2023-05-10T23:10:39.120Z,100314.84
2023-05-10T23:13:41.530Z,100312.97
2023-05-10T23:16:44.599Z,100318.28
2023-05-10T23:19:48.053Z,100316.25
2023-05-10T23:22:52.941Z,100319.31
2023-05-10T23:25:58.380Z,100311.00
2023-05-10T23:29:02.248Z,100316.19
2023-05-10T23:32:05.727Z,100327.25
2023-05-10T23:35:09.073Z,100313.38
2023-05-10T23:38:12.579Z,100313.56
2023-05-10T23:41:16.383Z,100316.06
2023-05-10T23:44:19.002Z,100317.25
2023-05-10T23:47:21.944Z,100321.06
2023-05-10T23:50:26.586Z,100327.84
2023-05-10T23:53:29.936Z,100326.19
2023-05-10T23:56:33.597Z,100327.06
2023-05-10T23:59:37.865Z,100324.72
